Time;durP1;ratioP1;P1;durP2;ratioP2;P2;SDS_P1;SDS_P2;PMS_P1;PMS_P2;Temp;Humidity;BMP_temperature;BMP_pressure;BME280_temperature;BME280_humidity;BME280_pressure;Samples;Min_cycle;Max_cycle;Signal;HPM_P1;HPM_P2
2023/07/21 00:00:34;;;;;;;9.10;8.17;;;;;;;13.65;100.00;101173.66;5072434;28;20466;-40
2023/07/21 00:03:01;;;;;;;8.87;8.33;;;;;;;13.60;100.00;101176.13;5072589;28;20815;-41
2023/07/21 00:05:31;;;;;;;9.27;8.67;;;;;;;13.55;100.00;101167.88;5072672;28;20557;-41
2023/07/21 00:07:58;;;;;;;9.63;9.03;;;;;;;13.47;100.00;101170.78;5072450;28;20445;-40
2023/07/21 00:10:26;;;;;;;10.23;9.43;;;;;;;13.43;100.00;101166.84;5072388;28;20462;-42
2023/07/21 00:12:54;;;;;;;9.40;8.80;;;;;;;13.38;100.00;101174.69;5072216;28;20509;-40
2023/07/21 00:15:22;;;;;;;9.90;9.20;;;;;;;13.28;100.00;101177.75;5071931;28;20448;-41
2023/07/21 00:17:50;;;;;;;9.67;9.07;;;;;;;13.21;100.00;101168.88;5072559;28;20469;-39
2023/07/21 00:20:21;;;;;;;10.90;10.20;;;;;;;13.15;100.00;101169.66;5071939;28;20465;-41
2023/07/21 00:22:51;;;;;;;10.70;9.90;;;;;;;13.10;100.00;101166.78;5072096;28;20468;-41
2023/07/21 00:25:19;;;;;;;10.67;10.00;;;;;;;13.03;100.00;101169.41;5072479;28;20476;-40
2023/07/21 00:27:47;;;;;;;10.10;9.20;;;;;;;12.98;100.00;101160.34;5072180;28;20943;-40
2023/07/21 00:30:15;;;;;;;9.27;8.77;;;;;;;12.93;100.00;101160.13;5070844;28;20465;-41
2023/07/21 00:32:43;;;;;;;9.27;8.77;;;;;;;12.88;100.00;101157.22;5071682;28;20482;-41
2023/07/21 00:35:11;;;;;;;10.20;9.50;;;;;;;12.83;100.00;101148.97;5072186;28;20429;-40
2023/07/21 00:37:40;;;;;;;10.53;9.93;;;;;;;12.77;100.00;101156.78;5071547;28;20419;-40
2023/07/21 00:40:13;;;;;;;11.10;10.00;;;;;;;12.71;100.00;101154.91;5071541;28;20606;-39
2023/07/21 00:42:41;;;;;;;10.87;10.03;;;;;;;12.67;100.00;101159.00;5071855;28;20451;-39
2023/07/21 00:45:09;;;;;;;11.03;10.33;;;;;;;12.61;100.00;101146.41;5072171;28;20561;-39
2023/07/21 00:47:37;;;;;;;11.20;10.60;;;;;;;12.58;100.00;101154.84;5071940;28;20437;-41
2023/07/21 00:50:06;;;;;;;10.33;9.73;;;;;;;12.52;100.00;101144.09;5071592;28;20545;-42
2023/07/21 00:52:33;;;;;;;11.67;10.53;;;;;;;12.46;100.00;101148.41;5071843;28;20446;-39
2023/07/21 00:55:01;;;;;;;11.27;10.40;;;;;;;12.41;100.00;101132.16;5072020;28;20800;-42
2023/07/21 00:57:31;;;;;;;12.00;10.83;;;;;;;12.37;100.00;101138.06;5071768;28;20488;-40
2023/07/21 00:59:59;;;;;;;11.40;10.60;;;;;;;12.31;100.00;101142.38;5071535;28;20458;-40
2023/07/21 01:02:27;;;;;;;11.10;10.33;;;;;;;12.27;100.00;101146.47;5071422;28;20534;-40
2023/07/21 01:05:01;;;;;;;11.10;10.37;;;;;;;12.23;100.00;101141.72;5068513;28;20879;-43
2023/07/21 01:07:31;;;;;;;11.83;11.10;;;;;;;12.20;100.00;101148.28;5071814;28;20426;-41
2023/07/21 01:09:59;;;;;;;12.60;11.50;;;;;;;12.15;100.00;101145.38;5071139;28;20507;-39
2023/07/21 01:12:27;;;;;;;13.83;12.77;;;;;;;12.13;100.00;101148.25;5071260;28;20454;-39
2023/07/21 01:14:56;;;;;;;14.30;13.13;;;;;;;12.12;100.00;101143.94;5071757;28;20462;-40
2023/07/21 01:17:28;;;;;;;17.27;15.87;;;;;;;12.11;100.00;101136.94;5071797;28;20435;-39
2023/07/21 01:20:00;;;;;;;18.20;16.47;;;;;;;12.09;100.00;101135.47;5071105;28;20553;-40
2023/07/21 01:22:36;;;;;;;21.70;19.60;;;;;;;12.07;100.00;101137.50;5071355;28;20447;-39
2023/07/21 01:25:11;;;;;;;19.17;17.67;;;;;;;12.07;100.00;101130.31;5071330;28;20465;-40
2023/07/21 01:27:41;;;;;;;21.57;19.40;;;;;;;12.06;100.00;101117.16;5071759;28;20436;-40
2023/07/21 01:30:11;;;;;;;20.30;18.80;;;;;;;12.05;100.00;101120.84;5071295;28;21099;-40
2023/07/21 01:32:41;;;;;;;18.40;17.07;;;;;;;12.01;100.00;101108.88;5071289;28;20810;-39
2023/07/21 01:35:11;;;;;;;19.73;18.13;;;;;;;12.01;100.00;101111.56;5071669;28;20523;-41
2023/07/21 01:37:41;;;;;;;20.10;17.77;;;;;;;11.98;100.00;101104.75;5071475;28;20959;-41
2023/07/21 01:40:15;;;;;;;18.30;17.10;;;;;;;11.98;100.00;101110.09;5070996;28;20492;-40
2023/07/21 01:42:46;;;;;;;18.93;17.43;;;;;;;11.97;100.00;101107.66;5071063;28;20460;-40
2023/07/21 01:45:14;;;;;;;21.63;19.53;;;;;;;11.98;100.00;101103.94;5071394;28;20501;-41
2023/07/21 01:47:44;;;;;;;21.23;19.40;;;;;;;11.97;100.00;101116.50;5071339;28;20507;-40
2023/07/21 01:50:14;;;;;;;20.40;18.70;;;;;;;11.96;100.00;101111.31;5074877;28;20462;-40
2023/07/21 01:52:45;;;;;;;23.50;21.50;;;;;;;11.93;100.00;101114.38;5075207;28;20449;-40
2023/07/21 01:55:19;;;;;;;23.53;21.27;;;;;;;11.91;100.00;101103.91;5075317;28;20431;-41
2023/07/21 01:57:53;;;;;;;20.70;19.10;;;;;;;11.90;100.00;101115.63;5075266;28;20469;-39
2023/07/21 02:00:24;;;;;;;21.90;19.80;;;;;;;11.91;100.00;101111.09;5075057;28;20829;-39
2023/07/21 02:02:53;;;;;;;20.00;18.47;;;;;;;11.91;100.00;101111.94;5074972;28;20549;-39
2023/07/21 02:05:22;;;;;;;20.70;19.00;;;;;;;11.91;100.00;101111.09;5075101;28;20532;-39
2023/07/21 02:07:51;;;;;;;17.97;16.37;;;;;;;11.90;100.00;101106.75;5074928;28;20430;-42
2023/07/21 02:10:20;;;;;;;15.10;14.00;;;;;;;11.89;100.00;101108.59;5074515;28;20450;-41
2023/07/21 02:12:48;;;;;;;16.43;15.23;;;;;;;11.88;100.00;101104.31;5074523;28;20871;-40
2023/07/21 02:15:16;;;;;;;14.57;13.47;;;;;;;11.87;100.00;101099.97;5075089;28;20422;-40
2023/07/21 02:17:44;;;;;;;15.07;13.70;;;;;;;11.88;100.00;101095.47;5074974;28;20432;-43
2023/07/21 02:20:14;;;;;;;14.33;13.43;;;;;;;11.87;100.00;101097.28;5074219;28;20570;-40
2023/07/21 02:22:43;;;;;;;13.70;12.80;;;;;;;11.89;100.00;101092.56;5074545;28;20544;-40
2023/07/21 02:25:12;;;;;;;13.83;12.83;;;;;;;11.92;100.00;101092.19;5074586;28;20484;-39
2023/07/21 02:27:42;;;;;;;13.77;12.57;;;;;;;11.97;100.00;101095.09;5074607;28;20834;-39
2023/07/21 02:30:10;;;;;;;13.53;12.70;;;;;;;12.03;100.00;101099.66;5074311;28;20462;-41
2023/07/21 02:32:38;;;;;;;13.23;12.17;;;;;;;12.08;100.00;101101.72;5074396;28;20450;-39
2023/07/21 02:35:08;;;;;;;13.20;12.03;;;;;;;12.12;100.00;101101.16;5074567;28;20458;-41
2023/07/21 02:37:36;;;;;;;12.50;11.50;;;;;;;12.18;100.00;101096.88;5074524;28;20438;-40
2023/07/21 02:40:06;;;;;;;12.90;12.20;;;;;;;12.21;100.00;101099.94;5073627;28;20923;-43
2023/07/21 02:42:34;;;;;;;13.17;12.40;;;;;;;12.23;100.00;101098.94;5074073;28;20450;-40
2023/07/21 02:45:05;;;;;;;13.73;12.60;;;;;;;12.22;100.00;101098.09;5074357;28;20434;-40
2023/07/21 02:47:33;;;;;;;13.60;12.53;;;;;;;12.24;100.00;101097.91;5074364;28;20749;-41
2023/07/21 02:50:01;;;;;;;13.00;12.10;;;;;;;12.23;100.00;101094.41;5073735;28;21027;-40
2023/07/21 02:52:28;;;;;;;13.10;12.10;;;;;;;12.24;100.00;101101.41;5073871;28;20447;-44
2023/07/21 02:54:56;;;;;;;12.70;12.00;;;;;;;12.26;100.00;101091.34;5074328;28;20434;-39
2023/07/21 02:57:24;;;;;;;14.43;13.43;;;;;;;12.27;100.00;101086.81;5074448;28;20513;-42
2023/07/21 02:59:52;;;;;;;14.83;13.67;;;;;;;12.28;100.00;101081.25;5072871;28;20458;-40
2023/07/21 03:02:21;;;;;;;13.43;12.73;;;;;;;12.33;100.00;101081.50;5073775;28;20450;-40
2023/07/21 03:04:49;;;;;;;14.10;13.40;;;;;;;12.37;100.00;101088.09;5070703;28;20458;-40
2023/07/21 03:07:17;;;;;;;15.80;14.70;;;;;;;12.40;100.00;101086.84;5065856;28;20559;-39
2023/07/21 03:09:45;;;;;;;14.20;13.40;;;;;;;12.46;100.00;101084.22;5073445;28;21015;-40
2023/07/21 03:12:13;;;;;;;14.93;14.13;;;;;;;12.48;100.00;101090.22;5073787;28;20805;-39
2023/07/21 03:14:41;;;;;;;13.27;12.50;;;;;;;12.52;100.00;101082.59;5073931;28;20458;-39
2023/07/21 03:17:09;;;;;;;15.10;14.00;;;;;;;12.55;100.00;101095.56;5074002;28;20928;-39
2023/07/21 03:19:38;;;;;;;17.97;16.70;;;;;;;12.60;100.00;101098.47;5073292;28;20466;-39
2023/07/21 03:22:05;;;;;;;17.07;15.67;;;;;;;12.64;100.00;101105.88;5073478;28;20438;-39
2023/07/21 03:24:34;;;;;;;17.30;16.17;;;;;;;12.61;100.00;101127.69;5073636;28;20951;-39
2023/07/21 03:27:02;;;;;;;16.73;15.00;;;;;;;12.64;100.00;101123.78;5073575;28;20573;-41
2023/07/21 03:29:29;;;;;;;17.10;15.80;;;;;;;12.68;100.00;101122.38;5072145;28;20482;-39
2023/07/21 03:31:57;;;;;;;16.77;15.50;;;;;;;12.76;100.00;101116.81;5073076;28;20427;-40
2023/07/21 03:34:25;;;;;;;14.90;14.10;;;;;;;12.77;100.00;101116.63;5073823;28;20422;-39
2023/07/21 03:36:54;;;;;;;15.30;14.10;;;;;;;12.81;100.00;101100.19;5073593;28;20465;-42
2023/07/21 03:39:23;;;;;;;16.00;14.50;;;;;;;12.90;100.00;101097.13;5072718;28;20451;-41
2023/07/21 03:41:50;;;;;;;15.00;13.80;;;;;;;12.98;100.00;101093.41;5073167;28;20772;-41
2023/07/21 03:44:18;;;;;;;15.07;13.80;;;;;;;13.02;100.00;101108.06;5072997;28;20446;-41
2023/07/21 03:46:46;;;;;;;14.47;13.60;;;;;;;13.08;100.00;101097.34;5073076;28;20470;-41
2023/07/21 03:49:14;;;;;;;14.80;13.60;;;;;;;13.15;100.00;101097.38;5073025;28;20466;-39
2023/07/21 03:51:42;;;;;;;13.37;12.67;;;;;;;13.23;100.00;101095.31;5073038;28;20524;-40
2023/07/21 03:54:11;;;;;;;13.33;12.63;;;;;;;13.29;100.00;101090.97;5073027;28;20450;-39
2023/07/21 03:56:39;;;;;;;14.53;13.53;;;;;;;13.36;100.00;101091.81;5073018;28;20505;-39
2023/07/21 03:59:07;;;;;;;14.87;13.97;;;;;;;13.44;100.00;101088.94;5071971;28;20827;-41
2023/07/21 04:01:35;;;;;;;14.27;13.47;;;;;;;13.52;100.00;101080.69;5072839;28;20495;-39
2023/07/21 04:04:03;;;;;;;13.50;12.70;;;;;;;13.62;100.00;101081.09;5069482;28;20462;-42
2023/07/21 04:06:31;;;;;;;13.10;12.30;;;;;;;13.73;100.00;101085.00;5070683;28;20867;-40
2023/07/21 04:09:00;;;;;;;12.57;11.97;;;;;;;13.83;100.00;101080.00;5063983;28;21297;-39
2023/07/21 04:11:28;;;;;;;12.87;12.10;;;;;;;13.92;100.00;101076.06;5069934;28;20462;-40
2023/07/21 04:13:59;;;;;;;13.10;12.40;;;;;;;14.00;100.00;101075.03;5070330;28;20790;-39
2023/07/21 04:16:27;;;;;;;14.00;13.10;;;;;;;14.06;100.00;101071.53;5070989;28;20426;-41
2023/07/21 04:18:55;;;;;;;13.13;12.53;;;;;;;14.13;100.00;101080.34;5069840;28;20454;-39
2023/07/21 04:21:23;;;;;;;13.90;13.10;;;;;;;14.20;100.00;101073.13;5070401;28;21107;-40
2023/07/21 04:23:51;;;;;;;14.00;13.30;;;;;;;14.27;100.00;101066.69;5070823;28;20525;-40
2023/07/21 04:26:19;;;;;;;14.60;13.50;;;;;;;14.37;100.00;101077.81;5070507;28;20508;-41
2023/07/21 04:28:48;;;;;;;14.13;13.20;;;;;;;14.46;100.00;101069.50;5070478;28;20851;-43
2023/07/21 04:31:21;;;;;;;13.77;13.07;;;;;;;14.64;100.00;101073.13;5070747;28;20840;-42
2023/07/21 04:33:49;;;;;;;12.90;12.30;;;;;;;14.77;100.00;101075.75;5070749;28;20968;-40
2023/07/21 04:36:17;;;;;;;13.43;12.73;;;;;;;14.76;100.00;101068.72;5070947;28;20480;-41
2023/07/21 04:38:44;;;;;;;14.33;13.40;;;;;;;14.78;100.00;101060.47;5069792;28;20454;-42
2023/07/21 04:41:13;;;;;;;12.50;12.00;;;;;;;14.81;100.00;101060.84;5070621;28;20426;-40
2023/07/21 04:43:41;;;;;;;13.33;12.37;;;;;;;14.90;100.00;101061.44;5069802;28;20447;-40
2023/07/21 04:46:10;;;;;;;13.50;12.80;;;;;;;15.38;100.00;101069.75;5070532;28;20458;-40
2023/07/21 04:48:38;;;;;;;14.37;13.67;;;;;;;16.71;100.00;101068.06;5069787;28;20829;-42
2023/07/21 04:51:05;;;;;;;13.17;12.47;;;;;;;17.02;100.00;101065.13;5069709;28;20963;-45
2023/07/21 04:53:33;;;;;;;12.90;12.30;;;;;;;17.99;100.00;101056.38;5069479;28;20436;-40
2023/07/21 04:56:01;;;;;;;14.67;13.57;;;;;;;18.99;100.00;101050.53;5069537;28;20426;-41
2023/07/21 04:58:29;;;;;;;12.87;12.13;;;;;;;19.99;100.00;101047.72;5069442;28;20522;-40
2023/07/21 05:00:56;;;;;;;13.40;12.57;;;;;;;21.03;100.00;101041.03;5068311;28;20458;-40
2023/07/21 05:03:25;;;;;;;12.27;11.67;;;;;;;21.84;100.00;101020.72;5068851;28;20449;-42
2023/07/21 05:05:53;;;;;;;11.23;10.73;;;;;;;22.67;100.00;101023.53;5068629;28;20449;-41
2023/07/21 05:08:21;;;;;;;11.20;10.70;;;;;;;23.50;100.00;101022.19;5069394;28;20828;-41
2023/07/21 05:10:49;;;;;;;9.60;9.20;;;;;;;24.27;100.00;101010.75;5068275;28;20557;-41
2023/07/21 05:13:16;;;;;;;10.63;9.73;;;;;;;24.83;100.00;101010.41;5068934;28;20438;-40
2023/07/21 05:15:44;;;;;;;8.70;8.30;;;;;;;25.67;100.00;101005.31;5068960;28;20430;-40
2023/07/21 05:18:12;;;;;;;8.00;7.60;;;;;;;26.19;98.62;101007.16;5068312;28;20417;-40
2023/07/21 05:20:41;;;;;;;8.50;7.90;;;;;;;26.97;96.74;101003.81;5068454;28;20480;-41
2023/07/21 05:23:11;;;;;;;6.00;5.70;;;;;;;27.52;85.89;101015.72;5068582;28;20460;-40
2023/07/21 05:25:39;;;;;;;4.93;4.53;;;;;;;26.31;76.37;101012.19;5069121;28;20499;-41
2023/07/21 05:28:08;;;;;;;5.53;5.13;;;;;;;25.48;81.77;101020.78;5068995;28;20522;-42
2023/07/21 05:30:35;;;;;;;5.43;5.03;;;;;;;24.48;81.30;101019.63;5068644;28;20504;-42
2023/07/21 05:33:03;;;;;;;4.60;4.40;;;;;;;23.52;85.99;101017.28;5069370;28;20450;-46
2023/07/21 05:35:31;;;;;;;4.70;4.50;;;;;;;22.79;91.66;101015.94;5069637;28;20426;-44
2023/07/21 05:38:00;;;;;;;4.43;4.23;;;;;;;22.14;98.22;101011.09;5069451;28;20940;-40
2023/07/21 05:40:28;;;;;;;5.57;4.93;;;;;;;21.40;100.00;101014.78;5062997;28;20477;-40
2023/07/21 05:42:56;;;;;;;5.10;4.60;;;;;;;20.77;100.00;101022.91;5068708;28;20796;-40
2023/07/21 05:45:24;;;;;;;5.47;5.00;;;;;;;20.27;100.00;101015.91;5068707;28;20517;-41
2023/07/21 05:47:51;;;;;;;5.60;5.17;;;;;;;19.84;100.00;101024.81;5068409;28;20512;-41
2023/07/21 05:50:19;;;;;;;6.73;4.97;;;;;;;19.47;100.00;101020.22;5068498;28;20987;-40
2023/07/21 05:52:50;;;;;;;5.70;5.30;;;;;;;19.16;100.00;101025.13;5069399;28;20811;-40
2023/07/21 05:55:19;;;;;;;5.53;5.23;;;;;;;18.99;100.00;101024.31;5069255;28;21121;-42
2023/07/21 05:57:47;;;;;;;6.70;6.20;;;;;;;18.77;100.00;101028.78;5068500;28;20505;-40
2023/07/21 06:00:15;;;;;;;5.97;5.47;;;;;;;18.58;100.00;101024.66;5068432;28;20466;-40
2023/07/21 06:02:44;;;;;;;5.37;4.87;;;;;;;18.38;100.00;101027.75;5069221;28;20444;-41
2023/07/21 06:05:12;;;;;;;5.80;5.40;;;;;;;18.23;100.00;101028.28;5069336;28;20521;-40
2023/07/21 06:07:44;;;;;;;6.03;5.40;;;;;;;18.15;100.00;101030.53;5069044;28;20553;-39
2023/07/21 06:10:13;;;;;;;6.23;5.67;;;;;;;18.08;100.00;101025.28;5068915;28;20545;-40
2023/07/21 06:12:42;;;;;;;5.70;5.33;;;;;;;18.01;100.00;101027.28;5069208;28;21033;-40
2023/07/21 06:15:10;;;;;;;6.13;5.63;;;;;;;17.97;100.00;101025.31;5069328;28;20441;-40
2023/07/21 06:17:39;;;;;;;5.73;5.43;;;;;;;17.90;100.00;101028.13;5068940;28;20484;-41
2023/07/21 06:20:09;;;;;;;5.80;5.40;;;;;;;17.80;100.00;101025.19;5068936;28;20462;-39
2023/07/21 06:22:37;;;;;;;6.63;5.57;;;;;;;17.50;100.00;101033.41;5069644;28;20499;-39
2023/07/21 06:25:05;;;;;;;5.03;4.73;;;;;;;17.15;100.00;101030.69;5069063;28;20426;-40
2023/07/21 06:27:35;;;;;;;12.30;5.90;;;;;;;16.62;100.00;101040.66;5069537;28;20505;-41
2023/07/21 06:30:04;;;;;;;5.60;5.10;;;;;;;16.09;100.00;101048.56;5069877;28;20460;-39
2023/07/21 06:32:32;;;;;;;6.20;5.90;;;;;;;15.92;100.00;101051.00;5081988;28;20477;-39
2023/07/21 06:35:00;;;;;;;4.90;4.50;;;;;;;15.63;100.00;101062.50;5084207;28;20433;-43
2023/07/21 06:37:27;;;;;;;6.10;5.70;;;;;;;15.60;100.00;101075.56;5084897;28;21023;-40
2023/07/21 06:39:55;;;;;;;6.10;5.77;;;;;;;15.67;100.00;101084.41;5085962;28;20458;-39
2023/07/21 06:42:22;;;;;;;7.00;6.50;;;;;;;15.59;100.00;101082.78;5085696;28;20554;-40
2023/07/21 06:44:50;;;;;;;6.00;5.60;;;;;;;15.49;100.00;101079.81;5087099;28;20496;-40
2023/07/21 06:47:19;;;;;;;5.30;5.10;;;;;;;15.45;100.00;101070.50;5086595;28;20481;-40
2023/07/21 06:49:49;;;;;;;5.10;4.90;;;;;;;15.38;100.00;101067.84;5084868;28;20466;-41
2023/07/21 06:52:17;;;;;;;5.40;4.90;;;;;;;15.34;100.00;101063.97;5084972;28;20643;-41
2023/07/21 06:54:45;;;;;;;5.97;5.50;;;;;;;15.36;100.00;101050.31;5084884;28;20430;-48
2023/07/21 06:57:13;;;;;;;5.90;5.70;;;;;;;15.32;100.00;101047.25;5084858;28;20464;-45
2023/07/21 06:59:41;;;;;;;6.40;6.00;;;;;;;15.36;100.00;101043.06;5084151;28;20512;-41
2023/07/21 07:02:09;;;;;;;5.50;5.20;;;;;;;15.44;100.00;101050.06;5085103;28;20441;-42
2023/07/21 07:04:39;;;;;;;5.20;4.80;;;;;;;15.48;100.00;101054.78;5085123;28;20430;-41
2023/07/21 07:07:08;;;;;;;5.73;5.23;;;;;;;15.65;100.00;101056.91;5084698;28;20490;-41
2023/07/21 07:09:36;;;;;;;5.57;5.27;;;;;;;15.80;100.00;101042.03;5084545;28;20450;-44
2023/07/21 07:12:07;;;;;;;4.97;4.77;;;;;;;15.91;100.00;101037.81;5084142;28;20454;-41
2023/07/21 07:14:35;;;;;;;6.30;5.70;;;;;;;16.27;100.00;101045.84;5084953;28;21007;-42
2023/07/21 07:17:02;;;;;;;5.73;5.53;;;;;;;16.69;100.00;101041.38;5084834;28;20453;-45
2023/07/21 07:19:30;;;;;;;5.77;5.53;;;;;;;17.08;100.00;101034.56;5085053;28;20496;-45
2023/07/21 07:21:59;;;;;;;5.50;5.30;;;;;;;17.45;100.00;101032.47;5084668;28;20486;-42
2023/07/21 07:24:27;;;;;;;4.90;4.70;;;;;;;17.76;100.00;101026.75;5084756;28;20502;-45
2023/07/21 07:26:55;;;;;;;4.90;4.70;;;;;;;17.87;100.00;101022.38;5084655;28;20525;-42
2023/07/21 07:29:23;;;;;;;4.37;4.13;;;;;;;18.01;100.00;101019.19;5083837;28;20515;-44
2023/07/21 07:31:50;;;;;;;5.20;4.90;;;;;;;18.23;100.00;101025.59;5083709;28;20499;-42
2023/07/21 07:34:18;;;;;;;4.40;4.20;;;;;;;18.48;100.00;101027.97;5084023;28;20450;-39
2023/07/21 07:36:46;;;;;;;3.83;3.73;;;;;;;18.74;100.00;101031.97;5085189;28;20425;-44
2023/07/21 07:39:15;;;;;;;3.97;3.77;;;;;;;19.24;100.00;101023.88;5085084;28;20533;-43
2023/07/21 07:41:44;;;;;;;4.03;3.93;;;;;;;19.77;100.00;101026.88;5084688;28;20484;-41
2023/07/21 07:44:12;;;;;;;4.53;4.30;;;;;;;20.21;100.00;101011.47;5084247;28;20474;-44
2023/07/21 07:46:40;;;;;;;4.23;4.03;;;;;;;21.05;100.00;101009.06;5084154;28;20434;-44
2023/07/21 07:49:08;;;;;;;4.23;4.03;;;;;;;21.62;100.00;101008.41;5083959;28;20458;-41
2023/07/21 07:51:38;;;;;;;4.13;3.93;;;;;;;21.87;100.00;100994.94;5083653;28;20483;-41
2023/07/21 07:54:07;;;;;;;4.13;4.03;;;;;;;22.78;100.00;100998.78;5085547;28;20452;-41
2023/07/21 07:56:36;;;;;;;3.70;3.60;;;;;;;22.90;96.07;100988.47;5086305;28;20425;-41
2023/07/21 07:59:04;;;;;;;3.47;3.37;;;;;;;22.85;91.82;100993.09;5085063;28;20461;-42
2023/07/21 08:01:31;;;;;;;3.40;3.20;;;;;;;22.97;93.92;100978.13;5084872;28;20426;-40
2023/07/21 08:03:59;;;;;;;3.67;3.47;;;;;;;23.52;96.66;100982.69;5085302;28;20438;-43
2023/07/21 08:06:27;;;;;;;3.90;3.77;;;;;;;23.68;89.04;100989.72;5085344;28;20485;-40
2023/07/21 08:08:58;;;;;;;4.17;3.77;;;;;;;23.28;91.19;100983.53;5085423;28;20454;-41
2023/07/21 08:11:25;;;;;;;3.60;3.40;;;;;;;23.01;87.97;100986.56;5086065;28;20460;-45
2023/07/21 08:13:55;;;;;;;3.50;3.40;;;;;;;23.35;88.41;100990.34;5085645;28;20458;-40
2023/07/21 08:16:23;;;;;;;3.70;3.60;;;;;;;23.18;82.11;100987.06;5085327;28;20488;-40
2023/07/21 08:18:51;;;;;;;4.17;3.87;;;;;;;23.10;84.39;100984.91;5085142;28;20437;-42
2023/07/21 08:21:21;;;;;;;3.90;3.70;;;;;;;22.56;90.29;100990.03;5085117;28;20943;-43
2023/07/21 08:23:51;;;;;;;3.70;3.50;;;;;;;22.25;86.21;100994.56;5083014;28;20449;-46
2023/07/21 08:26:19;;;;;;;3.30;3.20;;;;;;;21.60;88.38;100991.56;5083502;28;20426;-43
2023/07/21 08:28:46;;;;;;;3.40;3.20;;;;;;;21.16;94.94;100986.41;5083476;28;20512;-44
2023/07/21 08:31:15;;;;;;;3.20;3.00;;;;;;;20.93;97.11;100997.59;5082497;28;20421;-42
2023/07/21 08:33:43;;;;;;;2.70;2.60;;;;;;;20.55;100.00;100995.88;5083185;28;20450;-43
2023/07/21 08:36:11;;;;;;;3.10;3.00;;;;;;;20.41;100.00;100991.94;5082503;28;20437;-45
2023/07/21 08:38:39;;;;;;;2.87;2.77;;;;;;;20.14;100.00;100986.47;5082846;28;20430;-45
2023/07/21 08:41:08;;;;;;;2.97;2.87;;;;;;;19.93;100.00;100986.47;5083886;28;20434;-40
2023/07/21 08:43:37;;;;;;;2.83;2.73;;;;;;;20.03;100.00;100990.13;5083622;28;20964;-40
2023/07/21 08:46:08;;;;;;;3.33;3.17;;;;;;;20.08;100.00;100986.66;5083070;28;20434;-43
2023/07/21 08:48:40;;;;;;;3.27;3.17;;;;;;;20.25;100.00;100980.13;5083451;28;20537;-45
2023/07/21 08:51:09;;;;;;;3.63;3.53;;;;;;;20.46;100.00;100980.34;5082967;28;20429;-41
2023/07/21 08:53:37;;;;;;;2.90;2.80;;;;;;;20.64;100.00;100977.28;5082899;28;20507;-43
2023/07/21 08:56:05;;;;;;;3.40;3.30;;;;;;;20.67;100.00;100971.34;5083250;28;20473;-42
2023/07/21 08:58:33;;;;;;;4.00;3.90;;;;;;;20.88;100.00;100971.25;5082860;28;20426;-41
2023/07/21 09:01:04;;;;;;;3.90;3.70;;;;;;;21.04;100.00;100965.94;5082571;28;20509;-43
2023/07/21 09:03:32;;;;;;;4.43;3.50;;;;;;;21.60;100.00;100961.69;5082282;28;20563;-44
2023/07/21 09:06:01;;;;;;;5.00;3.43;;;;;;;21.98;100.00;100964.88;5083550;28;20943;-42
2023/07/21 09:08:30;;;;;;;3.57;3.43;;;;;;;22.36;100.00;100965.53;5083868;28;20426;-43
2023/07/21 09:10:59;;;;;;;4.03;3.73;;;;;;;22.70;100.00;100961.25;5082136;28;20513;-41
2023/07/21 09:13:27;;;;;;;3.80;3.70;;;;;;;22.64;100.00;100956.88;5081944;28;20456;-43
2023/07/21 09:15:57;;;;;;;3.60;3.27;;;;;;;22.83;100.00;100958.00;5081956;28;20448;-41
2023/07/21 09:18:26;;;;;;;3.53;3.37;;;;;;;23.11;97.57;100954.72;5081832;28;20438;-41
2023/07/21 09:20:55;;;;;;;3.67;3.47;;;;;;;23.07;97.15;100950.09;5074422;28;20461;-40
2023/07/21 09:23:26;;;;;;;3.77;3.57;;;;;;;23.17;97.14;100952.00;5071353;28;20951;-42
2023/07/21 09:25:56;;;;;;;3.83;3.53;;;;;;;23.51;94.18;100953.03;5071801;28;20487;-43
2023/07/21 09:28:39;;;;;;;4.10;3.70;;;;;;;23.91;89.14;100960.22;5071460;28;20991;-40
2023/07/21 09:31:07;;;;;;;3.37;3.17;;;;;;;23.76;87.14;100950.22;5071738;28;20695;-42
2023/07/21 09:33:41;;;;;;;3.10;3.00;;;;;;;23.69;85.47;100958.69;5071507;28;20458;-43
2023/07/21 09:36:10;;;;;;;3.00;2.90;;;;;;;23.73;86.49;100950.78;5071756;28;20434;-41
2023/07/21 09:38:40;;;;;;;2.97;2.87;;;;;;;23.83;85.93;100955.38;5070920;28;20440;-43
2023/07/21 09:41:10;;;;;;;3.60;3.40;;;;;;;23.86;81.97;100952.09;5071501;28;20426;-42
2023/07/21 09:43:38;;;;;;;3.07;2.87;;;;;;;23.97;81.62;100964.56;5071622;28;20541;-40
2023/07/21 09:46:08;;;;;;;3.93;2.90;;;;;;;23.96;78.62;100961.00;5071501;28;20436;-46
2023/07/21 09:48:38;;;;;;;2.60;2.47;;;;;;;23.81;80.02;100965.72;5071033;28;20425;-40
2023/07/21 09:51:08;;;;;;;2.93;2.83;;;;;;;23.73;83.70;100967.13;5071528;28;20545;-41
2023/07/21 09:53:38;;;;;;;2.70;2.50;;;;;;;23.59;79.47;100963.38;5071246;28;20511;-45
2023/07/21 09:56:08;;;;;;;2.80;2.60;;;;;;;23.27;77.19;100969.09;5071119;28;20460;-40
2023/07/21 09:58:42;;;;;;;2.90;2.80;;;;;;;23.17;79.95;100960.97;5071016;28;20437;-41
2023/07/21 10:01:11;;;;;;;3.00;2.80;;;;;;;23.25;79.68;100956.88;5071219;28;20946;-40
2023/07/21 10:03:39;;;;;;;2.97;2.77;;;;;;;23.31;79.29;100958.50;5070927;28;20915;-41
2023/07/21 10:06:07;;;;;;;3.57;3.33;;;;;;;23.39;80.01;100960.66;5071221;28;20441;-41
2023/07/21 10:08:36;;;;;;;3.20;3.00;;;;;;;23.47;79.60;100952.78;5071082;28;20460;-40
2023/07/21 10:11:08;;;;;;;2.90;2.80;;;;;;;23.37;78.56;100950.03;5073366;28;20504;-42
2023/07/21 10:13:43;;;;;;;2.80;2.70;;;;;;;23.49;76.70;100947.88;5074710;28;20459;-41
2023/07/21 10:16:12;;;;;;;3.23;3.13;;;;;;;23.57;76.75;100954.63;5074999;28;20432;-40
2023/07/21 10:19:01;;;;;;;3.37;3.17;;;;;;;23.68;76.85;100953.53;5062693;28;20434;-42
2023/07/21 10:21:32;;;;;;;3.50;3.27;;;;;;;23.84;75.87;100943.38;5054479;28;20470;-41
2023/07/21 10:24:07;;;;;;;2.53;2.40;;;;;;;23.94;75.54;100944.16;5054647;28;20508;-42
2023/07/21 10:26:36;;;;;;;2.43;2.33;;;;;;;24.29;71.99;100931.44;5054596;28;20539;-42
2023/07/21 10:29:17;;;;;;;3.17;2.97;;;;;;;24.52;70.96;100950.63;5054017;28;20478;-40
2023/07/21 10:31:52;;;;;;;2.67;2.50;;;;;;;24.85;72.59;100945.50;5054305;28;20454;-42
2023/07/21 10:34:25;;;;;;;3.30;3.10;;;;;;;24.98;66.62;100945.66;5054018;28;20533;-43
2023/07/21 10:37:02;;;;;;;3.00;2.90;;;;;;;25.51;68.74;100943.75;5054387;28;20458;-43
2023/07/21 10:39:32;;;;;;;2.70;2.60;;;;;;;25.76;67.12;100928.97;5054366;28;20455;-42
2023/07/21 10:42:03;;;;;;;2.77;2.67;;;;;;;26.10;66.41;100931.53;5054130;28;20470;-40
2023/07/21 10:44:34;;;;;;;2.97;2.87;;;;;;;26.40;65.55;100939.31;5054284;28;20770;-42
2023/07/21 10:47:02;;;;;;;3.00;2.80;;;;;;;26.15;58.67;100928.75;5054127;28;20427;-44
2023/07/21 10:49:30;;;;;;;2.80;2.60;;;;;;;26.36;63.04;100930.91;5053924;28;20497;-43
2023/07/21 10:51:57;;;;;;;3.30;3.10;;;;;;;26.10;61.17;100934.28;5054020;28;20981;-42
2023/07/21 10:54:25;;;;;;;3.53;3.33;;;;;;;26.19;60.67;100940.72;5054553;28;20436;-43
2023/07/21 10:56:53;;;;;;;3.07;2.77;;;;;;;26.40;62.31;100931.13;5054396;28;20496;-46
2023/07/21 10:59:23;;;;;;;2.60;2.40;;;;;;;26.30;59.83;100931.28;5053781;28;20517;-41
2023/07/21 11:01:53;;;;;;;3.37;3.17;;;;;;;26.14;57.81;100933.38;5053589;28;20932;-41
2023/07/21 11:04:23;;;;;;;3.27;3.07;;;;;;;25.68;60.78;100935.09;5058226;28;20449;-45
2023/07/21 11:06:52;;;;;;;3.23;3.03;;;;;;;25.95;59.53;100927.09;5074212;28;20430;-42
2023/07/21 11:09:21;;;;;;;3.20;3.10;;;;;;;25.73;60.38;100921.38;5073451;28;20480;-42
2023/07/21 11:11:51;;;;;;;2.97;2.80;;;;;;;25.72;60.03;100920.56;5073955;28;20430;-45
2023/07/21 11:14:20;;;;;;;3.17;2.97;;;;;;;25.54;59.62;100926.78;5074035;28;20541;-41
2023/07/21 11:16:53;;;;;;;3.07;2.87;;;;;;;26.04;59.20;100921.78;5073282;28;20877;-40
2023/07/21 11:19:22;;;;;;;2.80;2.70;;;;;;;26.30;57.73;100923.88;5073422;28;20486;-44